sensor_id;sensor_type;location;lat;lon;timestamp;temperature;humidity
55771;DHT22;41687;-33.234;-60.334;2023-06-10T04:15:07;12.10;99.90
55771;DHT22;41687;-33.234;-60.334;2023-06-10T04:17:37;12.10;99.90
55771;DHT22;41687;-33.234;-60.334;2023-06-10T04:20:05;12.10;99.90
55771;DHT22;41687;-33.234;-60.334;2023-06-10T04:22:36;12.00;99.80
55771;DHT22;41687;-33.234;-60.334;2023-06-10T04:25:04;12.00;99.90
55771;DHT22;41687;-33.234;-60.334;2023-06-10T04:27:32;12.00;99.90
55771;DHT22;41687;-33.234;-60.334;2023-06-10T04:30:00;11.90;99.90
55771;DHT22;41687;-33.234;-60.334;2023-06-10T04:32:29;12.00;99.90
55771;DHT22;41687;-33.234;-60.334;2023-06-10T04:34:57;11.80;99.90
55771;DHT22;41687;-33.234;-60.334;2023-06-10T04:37:25;11.80;99.90
55771;DHT22;41687;-33.234;-60.334;2023-06-10T04:39:52;11.70;99.90
55771;DHT22;41687;-33.234;-60.334;2023-06-10T04:42:20;11.70;99.90
55771;DHT22;41687;-33.234;-60.334;2023-06-10T04:44:47;11.70;99.90
55771;DHT22;41687;-33.234;-60.334;2023-06-10T04:47:15;11.70;99.90
55771;DHT22;41687;-33.234;-60.334;2023-06-10T04:49:45;11.70;99.90
55771;DHT22;41687;-33.234;-60.334;2023-06-10T04:52:13;11.70;99.90
55771;DHT22;41687;-33.234;-60.334;2023-06-10T04:54:41;11.70;99.90
55771;DHT22;41687;-33.234;-60.334;2023-06-10T04:57:09;11.70;99.90
55771;DHT22;41687;-33.234;-60.334;2023-06-10T04:59:38;11.60;99.90
55771;DHT22;41687;-33.234;-60.334;2023-06-10T05:02:06;11.60;99.90
55771;DHT22;41687;-33.234;-60.334;2023-06-10T05:04:33;11.60;99.90
55771;DHT22;41687;-33.234;-60.334;2023-06-10T05:07:00;11.60;99.90
55771;DHT22;41687;-33.234;-60.334;2023-06-10T05:09:28;11.50;99.90
55771;DHT22;41687;-33.234;-60.334;2023-06-10T05:11:56;11.40;99.90
55771;DHT22;41687;-33.234;-60.334;2023-06-10T05:14:23;11.30;99.90
55771;DHT22;41687;-33.234;-60.334;2023-06-10T05:16:51;11.40;99.90
55771;DHT22;41687;-33.234;-60.334;2023-06-10T05:19:19;11.30;99.90
55771;DHT22;41687;-33.234;-60.334;2023-06-10T05:21:48;11.30;99.90
55771;DHT22;41687;-33.234;-60.334;2023-06-10T05:24:15;11.30;99.90
55771;DHT22;41687;-33.234;-60.334;2023-06-10T05:26:43;11.40;99.90
55771;DHT22;41687;-33.234;-60.334;2023-06-10T05:29:11;11.30;99.90
55771;DHT22;41687;-33.234;-60.334;2023-06-10T05:31:39;11.30;99.90
55771;DHT22;41687;-33.234;-60.334;2023-06-10T05:34:06;11.30;99.90
55771;DHT22;41687;-33.234;-60.334;2023-06-10T05:36:33;11.30;99.90
55771;DHT22;41687;-33.234;-60.334;2023-06-10T05:39:01;11.30;99.90
55771;DHT22;41687;-33.234;-60.334;2023-06-10T05:41:29;11.30;99.90
55771;DHT22;41687;-33.234;-60.334;2023-06-10T05:43:57;11.30;99.90
55771;DHT22;41687;-33.234;-60.334;2023-06-10T05:46:24;11.30;99.50
55771;DHT22;41687;-33.234;-60.334;2023-06-10T05:48:52;11.30;99.50
55771;DHT22;41687;-33.234;-60.334;2023-06-10T05:51:19;11.20;99.90
55771;DHT22;41687;-33.234;-60.334;2023-06-10T05:53:47;11.20;99.80
55771;DHT22;41687;-33.234;-60.334;2023-06-10T05:56:14;11.20;99.60
55771;DHT22;41687;-33.234;-60.334;2023-06-10T05:58:42;11.10;99.60
55771;DHT22;41687;-33.234;-60.334;2023-06-10T06:01:10;11.10;99.90
55771;DHT22;41687;-33.234;-60.334;2023-06-10T06:03:37;11.00;99.60
55771;DHT22;41687;-33.234;-60.334;2023-06-10T06:06:05;11.00;99.40
55771;DHT22;41687;-33.234;-60.334;2023-06-10T06:08:33;10.90;99.30
55771;DHT22;41687;-33.234;-60.334;2023-06-10T06:11:00;10.90;98.90
55771;DHT22;41687;-33.234;-60.334;2023-06-10T06:13:27;10.90;98.80
55771;DHT22;41687;-33.234;-60.334;2023-06-10T06:15:55;10.90;98.40
55771;DHT22;41687;-33.234;-60.334;2023-06-10T06:18:23;10.90;98.00
55771;DHT22;41687;-33.234;-60.334;2023-06-10T06:20:51;10.90;98.60
55771;DHT22;41687;-33.234;-60.334;2023-06-10T06:23:19;11.00;98.50
55771;DHT22;41687;-33.234;-60.334;2023-06-10T06:25:46;10.90;98.50
55771;DHT22;41687;-33.234;-60.334;2023-06-10T06:28:14;10.90;98.90
55771;DHT22;41687;-33.234;-60.334;2023-06-10T06:30:41;10.80;98.70
55771;DHT22;41687;-33.234;-60.334;2023-06-10T06:33:09;10.80;98.80
55771;DHT22;41687;-33.234;-60.334;2023-06-10T06:35:37;10.70;98.90
55771;DHT22;41687;-33.234;-60.334;2023-06-10T06:38:05;10.70;98.90
55771;DHT22;41687;-33.234;-60.334;2023-06-10T06:40:34;10.70;98.90
55771;DHT22;41687;-33.234;-60.334;2023-06-10T06:43:01;10.70;98.60
55771;DHT22;41687;-33.234;-60.334;2023-06-10T06:45:48;10.70;97.80
55771;DHT22;41687;-33.234;-60.334;2023-06-10T06:48:16;10.70;97.10
55771;DHT22;41687;-33.234;-60.334;2023-06-10T06:50:43;10.70;97.40
55771;DHT22;41687;-33.234;-60.334;2023-06-10T06:53:10;10.50;98.30
55771;DHT22;41687;-33.234;-60.334;2023-06-10T06:55:38;10.40;99.30
55771;DHT22;41687;-33.234;-60.334;2023-06-10T06:58:06;10.40;99.90
55771;DHT22;41687;-33.234;-60.334;2023-06-10T07:00:34;10.40;99.90
55771;DHT22;41687;-33.234;-60.334;2023-06-10T07:03:01;10.20;99.90
55771;DHT22;41687;-33.234;-60.334;2023-06-10T07:05:29;10.20;99.90
55771;DHT22;41687;-33.234;-60.334;2023-06-10T07:07:58;10.20;99.80
55771;DHT22;41687;-33.234;-60.334;2023-06-10T07:10:25;10.20;99.40
55771;DHT22;41687;-33.234;-60.334;2023-06-10T07:12:54;10.20;99.20
55771;DHT22;41687;-33.234;-60.334;2023-06-10T07:15:22;10.10;99.50
55771;DHT22;41687;-33.234;-60.334;2023-06-10T07:17:50;10.10;99.60
55771;DHT22;41687;-33.234;-60.334;2023-06-10T07:20:17;10.10;99.80
55771;DHT22;41687;-33.234;-60.334;2023-06-10T07:22:46;10.30;99.50
55771;DHT22;41687;-33.234;-60.334;2023-06-10T07:25:13;10.20;99.60
55771;DHT22;41687;-33.234;-60.334;2023-06-10T07:27:42;10.20;99.70
55771;DHT22;41687;-33.234;-60.334;2023-06-10T07:30:10;10.10;99.90
55771;DHT22;41687;-33.234;-60.334;2023-06-10T07:32:38;10.10;99.90
55771;DHT22;41687;-33.234;-60.334;2023-06-10T07:35:08;10.10;99.90
55771;DHT22;41687;-33.234;-60.334;2023-06-10T07:37:36;10.10;99.90
55771;DHT22;41687;-33.234;-60.334;2023-06-10T07:40:04;10.00;99.90
55771;DHT22;41687;-33.234;-60.334;2023-06-10T07:42:36;10.00;99.90
55771;DHT22;41687;-33.234;-60.334;2023-06-10T07:45:04;10.00;99.90
55771;DHT22;41687;-33.234;-60.334;2023-06-10T07:47:34;10.00;99.90
55771;DHT22;41687;-33.234;-60.334;2023-06-10T07:50:01;10.00;99.90
55771;DHT22;41687;-33.234;-60.334;2023-06-10T07:52:29;10.10;99.90
55771;DHT22;41687;-33.234;-60.334;2023-06-10T07:54:57;10.10;99.90
55771;DHT22;41687;-33.234;-60.334;2023-06-10T07:57:24;10.10;99.90
55771;DHT22;41687;-33.234;-60.334;2023-06-10T07:59:51;10.10;99.90
55771;DHT22;41687;-33.234;-60.334;2023-06-10T08:02:19;10.10;99.90
55771;DHT22;41687;-33.234;-60.334;2023-06-10T08:04:47;10.20;99.90
55771;DHT22;41687;-33.234;-60.334;2023-06-10T08:07:14;10.20;99.80
55771;DHT22;41687;-33.234;-60.334;2023-06-10T08:09:42;10.20;99.60
55771;DHT22;41687;-33.234;-60.334;2023-06-10T08:12:09;10.10;99.90
55771;DHT22;41687;-33.234;-60.334;2023-06-10T08:14:41;10.10;99.80
55771;DHT22;41687;-33.234;-60.334;2023-06-10T08:17:10;10.20;99.50
55771;DHT22;41687;-33.234;-60.334;2023-06-10T08:19:37;10.20;99.80
55771;DHT22;41687;-33.234;-60.334;2023-06-10T08:22:05;10.10;99.40
55771;DHT22;41687;-33.234;-60.334;2023-06-10T08:24:33;10.10;99.90
55771;DHT22;41687;-33.234;-60.334;2023-06-10T08:27:00;10.20;99.90
55771;DHT22;41687;-33.234;-60.334;2023-06-10T08:29:28;10.20;99.90
55771;DHT22;41687;-33.234;-60.334;2023-06-10T08:31:58;10.20;99.90
55771;DHT22;41687;-33.234;-60.334;2023-06-10T08:34:26;10.20;99.90
55771;DHT22;41687;-33.234;-60.334;2023-06-10T08:36:53;10.10;99.90
55771;DHT22;41687;-33.234;-60.334;2023-06-10T08:39:22;10.10;99.90
55771;DHT22;41687;-33.234;-60.334;2023-06-10T08:42:22;10.20;99.90
55771;DHT22;41687;-33.234;-60.334;2023-06-10T08:44:54;10.20;98.90
55771;DHT22;41687;-33.234;-60.334;2023-06-10T08:47:26;10.20;98.90
55771;DHT22;41687;-33.234;-60.334;2023-06-10T08:50:02;10.20;98.50
55771;DHT22;41687;-33.234;-60.334;2023-06-10T08:52:36;10.20;98.80
55771;DHT22;41687;-33.234;-60.334;2023-06-10T08:55:12;10.20;99.20
55771;DHT22;41687;-33.234;-60.334;2023-06-10T08:57:42;10.20;99.90
55771;DHT22;41687;-33.234;-60.334;2023-06-10T09:00:12;10.20;99.90
55771;DHT22;41687;-33.234;-60.334;2023-06-10T09:02:40;10.10;99.90
55771;DHT22;41687;-33.234;-60.334;2023-06-10T09:05:08;10.10;99.90
55771;DHT22;41687;-33.234;-60.334;2023-06-10T09:07:36;10.20;99.90
55771;DHT22;41687;-33.234;-60.334;2023-06-10T09:10:05;10.10;99.90
55771;DHT22;41687;-33.234;-60.334;2023-06-10T09:12:34;10.00;99.90
55771;DHT22;41687;-33.234;-60.334;2023-06-10T09:15:02;10.10;99.90
55771;DHT22;41687;-33.234;-60.334;2023-06-10T09:17:30;9.90;99.90
55771;DHT22;41687;-33.234;-60.334;2023-06-10T09:20:00;10.00;99.90
55771;DHT22;41687;-33.234;-60.334;2023-06-10T09:22:30;10.00;99.90
55771;DHT22;41687;-33.234;-60.334;2023-06-10T09:25:08;9.90;99.90
55771;DHT22;41687;-33.234;-60.334;2023-06-10T09:27:52;9.90;99.90
55771;DHT22;41687;-33.234;-60.334;2023-06-10T09:30:32;9.90;99.90
55771;DHT22;41687;-33.234;-60.334;2023-06-10T09:33:02;9.90;99.90
55771;DHT22;41687;-33.234;-60.334;2023-06-10T09:35:31;9.90;99.90
55771;DHT22;41687;-33.234;-60.334;2023-06-10T09:37:59;9.90;99.90
55771;DHT22;41687;-33.234;-60.334;2023-06-10T09:40:28;9.80;99.90
55771;DHT22;41687;-33.234;-60.334;2023-06-10T09:42:58;9.80;99.90
55771;DHT22;41687;-33.234;-60.334;2023-06-10T09:45:32;9.70;99.90
55771;DHT22;41687;-33.234;-60.334;2023-06-10T09:48:01;9.80;99.90
55771;DHT22;41687;-33.234;-60.334;2023-06-10T09:50:30;9.70;99.90
55771;DHT22;41687;-33.234;-60.334;2023-06-10T09:53:00;9.70;99.90
55771;DHT22;41687;-33.234;-60.334;2023-06-10T09:55:33;9.60;99.90
55771;DHT22;41687;-33.234;-60.334;2023-06-10T09:58:02;9.70;99.90
55771;DHT22;41687;-33.234;-60.334;2023-06-10T10:00:32;9.60;99.90
55771;DHT22;41687;-33.234;-60.334;2023-06-10T10:03:01;9.50;99.90
55771;DHT22;41687;-33.234;-60.334;2023-06-10T10:05:28;9.50;99.90
55771;DHT22;41687;-33.234;-60.334;2023-06-10T10:07:57;9.50;99.90
55771;DHT22;41687;-33.234;-60.334;2023-06-10T10:10:25;9.50;99.90
55771;DHT22;41687;-33.234;-60.334;2023-06-10T10:12:56;9.50;99.90
55771;DHT22;41687;-33.234;-60.334;2023-06-10T10:15:32;9.60;99.90
55771;DHT22;41687;-33.234;-60.334;2023-06-10T10:20:33;9.60;99.90
55771;DHT22;41687;-33.234;-60.334;2023-06-10T10:23:04;9.50;99.90
55771;DHT22;41687;-33.234;-60.334;2023-06-10T10:25:38;9.50;99.90
55771;DHT22;41687;-33.234;-60.334;2023-06-10T10:28:12;9.50;99.90
55771;DHT22;41687;-33.234;-60.334;2023-06-10T10:30:50;9.40;99.90
55771;DHT22;41687;-33.234;-60.334;2023-06-10T10:33:36;9.40;99.90
55771;DHT22;41687;-33.234;-60.334;2023-06-10T10:36:08;9.40;99.90
55771;DHT22;41687;-33.234;-60.334;2023-06-10T10:38:36;9.40;99.90
55771;DHT22;41687;-33.234;-60.334;2023-06-10T10:41:03;9.40;99.90
55771;DHT22;41687;-33.234;-60.334;2023-06-10T10:43:31;9.40;99.90
55771;DHT22;41687;-33.234;-60.334;2023-06-10T10:46:11;9.40;99.90
55771;DHT22;41687;-33.234;-60.334;2023-06-10T10:48:39;9.40;99.90
55771;DHT22;41687;-33.234;-60.334;2023-06-10T10:51:11;9.50;99.90
55771;DHT22;41687;-33.234;-60.334;2023-06-10T10:53:39;9.40;99.90
55771;DHT22;41687;-33.234;-60.334;2023-06-10T10:56:16;9.40;99.90
55771;DHT22;41687;-33.234;-60.334;2023-06-10T10:59:04;9.50;99.90
55771;DHT22;41687;-33.234;-60.334;2023-06-10T11:01:43;9.50;99.90
55771;DHT22;41687;-33.234;-60.334;2023-06-10T11:04:13;9.50;99.90
55771;DHT22;41687;-33.234;-60.334;2023-06-10T11:06:54;9.40;99.90
55771;DHT22;41687;-33.234;-60.334;2023-06-10T11:09:27;9.40;99.90
55771;DHT22;41687;-33.234;-60.334;2023-06-10T11:11:57;9.50;99.90
55771;DHT22;41687;-33.234;-60.334;2023-06-10T11:14:29;9.50;99.90
55771;DHT22;41687;-33.234;-60.334;2023-06-10T11:16:59;9.50;99.90
55771;DHT22;41687;-33.234;-60.334;2023-06-10T11:19:38;9.50;99.90
55771;DHT22;41687;-33.234;-60.334;2023-06-10T11:22:08;9.50;99.90
55771;DHT22;41687;-33.234;-60.334;2023-06-10T11:24:36;9.50;99.90
55771;DHT22;41687;-33.234;-60.334;2023-06-10T11:32:34;9.60;99.90
55771;DHT22;41687;-33.234;-60.334;2023-06-10T11:35:06;9.70;99.90
55771;DHT22;41687;-33.234;-60.334;2023-06-10T11:37:33;9.60;99.90
55771;DHT22;41687;-33.234;-60.334;2023-06-10T11:40:01;9.80;99.70
55771;DHT22;41687;-33.234;-60.334;2023-06-10T11:42:29;9.80;99.30
55771;DHT22;41687;-33.234;-60.334;2023-06-10T11:44:57;9.90;99.20
55771;DHT22;41687;-33.234;-60.334;2023-06-10T11:47:25;9.90;98.80
55771;DHT22;41687;-33.234;-60.334;2023-06-10T11:49:56;10.00;99.00
55771;DHT22;41687;-33.234;-60.334;2023-06-10T11:52:28;10.10;98.80
55771;DHT22;41687;-33.234;-60.334;2023-06-10T11:54:59;10.20;98.70
55771;DHT22;41687;-33.234;-60.334;2023-06-10T11:57:26;11.00;96.00
55771;DHT22;41687;-33.234;-60.334;2023-06-10T11:59:54;11.60;95.70
55771;DHT22;41687;-33.234;-60.334;2023-06-10T12:02:21;11.70;92.90
55771;DHT22;41687;-33.234;-60.334;2023-06-10T12:04:49;12.20;92.40
55771;DHT22;41687;-33.234;-60.334;2023-06-10T12:07:19;12.90;90.10
55771;DHT22;41687;-33.234;-60.334;2023-06-10T12:09:59;12.60;88.30
55771;DHT22;41687;-33.234;-60.334;2023-06-10T12:12:28;12.40;88.90
55771;DHT22;41687;-33.234;-60.334;2023-06-10T12:14:59;12.20;91.20
55771;DHT22;41687;-33.234;-60.334;2023-06-10T12:20:01;11.60;93.70
55771;DHT22;41687;-33.234;-60.334;2023-06-10T12:22:42;11.30;95.10
55771;DHT22;41687;-33.234;-60.334;2023-06-10T12:25:11;11.20;95.50
55771;DHT22;41687;-33.234;-60.334;2023-06-10T12:27:40;11.10;96.90
55771;DHT22;41687;-33.234;-60.334;2023-06-10T12:30:08;11.00;96.80
55771;DHT22;41687;-33.234;-60.334;2023-06-10T12:32:44;11.00;97.40
55771;DHT22;41687;-33.234;-60.334;2023-06-10T12:35:17;11.00;97.90
55771;DHT22;41687;-33.234;-60.334;2023-06-10T12:38:05;11.00;97.80
55771;DHT22;41687;-33.234;-60.334;2023-06-10T12:40:38;11.10;98.10
55771;DHT22;41687;-33.234;-60.334;2023-06-10T12:43:09;11.10;98.50
55771;DHT22;41687;-33.234;-60.334;2023-06-10T12:45:39;11.10;99.10
55771;DHT22;41687;-33.234;-60.334;2023-06-10T12:48:19;10.90;99.20
55771;DHT22;41687;-33.234;-60.334;2023-06-10T12:50:54;10.90;99.60
55771;DHT22;41687;-33.234;-60.334;2023-06-10T12:53:23;10.90;99.90
55771;DHT22;41687;-33.234;-60.334;2023-06-10T12:55:51;10.90;99.90
55771;DHT22;41687;-33.234;-60.334;2023-06-10T12:58:22;10.90;99.90
55771;DHT22;41687;-33.234;-60.334;2023-06-10T13:00:51;10.90;99.90
55771;DHT22;41687;-33.234;-60.334;2023-06-10T13:03:21;11.00;99.90
55771;DHT22;41687;-33.234;-60.334;2023-06-10T13:05:49;11.00;99.90
55771;DHT22;41687;-33.234;-60.334;2023-06-10T13:08:17;11.10;99.90
55771;DHT22;41687;-33.234;-60.334;2023-06-10T13:10:44;11.10;99.60
55771;DHT22;41687;-33.234;-60.334;2023-06-10T13:13:11;11.10;99.40
55771;DHT22;41687;-33.234;-60.334;2023-06-10T13:15:42;11.10;98.60
55771;DHT22;41687;-33.234;-60.334;2023-06-10T13:18:10;11.10;97.80
55771;DHT22;41687;-33.234;-60.334;2023-06-10T13:20:37;11.10;97.40
55771;DHT22;41687;-33.234;-60.334;2023-06-10T13:23:05;11.00;97.40
55771;DHT22;41687;-33.234;-60.334;2023-06-10T13:25:32;11.00;97.20
55771;DHT22;41687;-33.234;-60.334;2023-06-10T13:28:01;10.90;96.70
55771;DHT22;41687;-33.234;-60.334;2023-06-10T13:30:29;10.90;96.60
55771;DHT22;41687;-33.234;-60.334;2023-06-10T13:32:57;10.90;95.90
55771;DHT22;41687;-33.234;-60.334;2023-06-10T13:35:24;10.90;95.90
55771;DHT22;41687;-33.234;-60.334;2023-06-10T13:37:52;10.80;95.90
55771;DHT22;41687;-33.234;-60.334;2023-06-10T13:40:19;10.70;96.20
55771;DHT22;41687;-33.234;-60.334;2023-06-10T13:42:47;10.70;96.50
55771;DHT22;41687;-33.234;-60.334;2023-06-10T13:45:17;10.70;96.30
55771;DHT22;41687;-33.234;-60.334;2023-06-10T13:47:44;10.70;96.30
55771;DHT22;41687;-33.234;-60.334;2023-06-10T13:50:13;10.60;95.00
55771;DHT22;41687;-33.234;-60.334;2023-06-10T13:52:40;10.60;94.10
55771;DHT22;41687;-33.234;-60.334;2023-06-10T13:55:08;10.60;94.20
55771;DHT22;41687;-33.234;-60.334;2023-06-10T13:57:35;10.60;93.70
55771;DHT22;41687;-33.234;-60.334;2023-06-10T14:00:04;10.70;94.00
55771;DHT22;41687;-33.234;-60.334;2023-06-10T14:02:32;10.80;94.20
55771;DHT22;41687;-33.234;-60.334;2023-06-10T14:04:59;10.80;93.40
55771;DHT22;41687;-33.234;-60.334;2023-06-10T14:07:28;10.80;94.50
55771;DHT22;41687;-33.234;-60.334;2023-06-10T14:09:55;10.90;95.10
55771;DHT22;41687;-33.234;-60.334;2023-06-10T14:12:23;10.90;95.30
55771;DHT22;41687;-33.234;-60.334;2023-06-10T14:14:51;10.90;93.30
55771;DHT22;41687;-33.234;-60.334;2023-06-10T14:17:18;10.90;94.50
55771;DHT22;41687;-33.234;-60.334;2023-06-10T14:19:46;10.90;93.60
55771;DHT22;41687;-33.234;-60.334;2023-06-10T14:22:13;11.00;93.20
55771;DHT22;41687;-33.234;-60.334;2023-06-10T14:24:41;11.00;92.80
55771;DHT22;41687;-33.234;-60.334;2023-06-10T14:27:08;11.00;91.20
55771;DHT22;41687;-33.234;-60.334;2023-06-10T14:29:36;11.10;90.70
55771;DHT22;41687;-33.234;-60.334;2023-06-10T14:32:04;11.20;89.10
55771;DHT22;41687;-33.234;-60.334;2023-06-10T14:34:32;11.40;83.90
55771;DHT22;41687;-33.234;-60.334;2023-06-10T14:37:00;11.50;79.90
55771;DHT22;41687;-33.234;-60.334;2023-06-10T14:39:30;11.60;79.20
55771;DHT22;41687;-33.234;-60.334;2023-06-10T14:41:57;11.70;78.10
55771;DHT22;41687;-33.234;-60.334;2023-06-10T14:44:25;11.70;76.70
55771;DHT22;41687;-33.234;-60.334;2023-06-10T14:46:52;11.80;76.40
55771;DHT22;41687;-33.234;-60.334;2023-06-10T14:49:20;11.80;75.10
55771;DHT22;41687;-33.234;-60.334;2023-06-10T14:51:47;11.90;75.30
55771;DHT22;41687;-33.234;-60.334;2023-06-10T14:54:17;12.00;74.90
55771;DHT22;41687;-33.234;-60.334;2023-06-10T14:56:44;12.00;73.10
55771;DHT22;41687;-33.234;-60.334;2023-06-10T14:59:12;12.00;71.60
55771;DHT22;41687;-33.234;-60.334;2023-06-10T15:01:39;12.00;72.30
55771;DHT22;41687;-33.234;-60.334;2023-06-10T15:04:07;12.20;72.10
55771;DHT22;41687;-33.234;-60.334;2023-06-10T15:06:34;12.10;69.10
55771;DHT22;41687;-33.234;-60.334;2023-06-10T15:09:02;12.20;66.60
55771;DHT22;41687;-33.234;-60.334;2023-06-10T15:11:29;12.10;66.10
55771;DHT22;41687;-33.234;-60.334;2023-06-10T15:13:58;12.10;66.50
55771;DHT22;41687;-33.234;-60.334;2023-06-10T15:16:25;12.30;65.80
55771;DHT22;41687;-33.234;-60.334;2023-06-10T15:18:53;12.30;64.00
55771;DHT22;41687;-33.234;-60.334;2023-06-10T15:21:21;12.40;64.20
55771;DHT22;41687;-33.234;-60.334;2023-06-10T15:23:48;12.40;64.90
55771;DHT22;41687;-33.234;-60.334;2023-06-10T15:26:15;12.50;63.50
55771;DHT22;41687;-33.234;-60.334;2023-06-10T15:28:43;12.50;63.50
55771;DHT22;41687;-33.234;-60.334;2023-06-10T15:31:11;12.50;63.60
55771;DHT22;41687;-33.234;-60.334;2023-06-10T15:33:38;12.50;60.90
55771;DHT22;41687;-33.234;-60.334;2023-06-10T15:36:05;12.60;62.00
55771;DHT22;41687;-33.234;-60.334;2023-06-10T15:38:33;12.70;59.80
55771;DHT22;41687;-33.234;-60.334;2023-06-10T15:41:00;12.60;61.20
55771;DHT22;41687;-33.234;-60.334;2023-06-10T15:43:28;12.60;61.20
55771;DHT22;41687;-33.234;-60.334;2023-06-10T15:45:56;12.70;58.90
55771;DHT22;41687;-33.234;-60.334;2023-06-10T15:48:23;12.70;61.40
55771;DHT22;41687;-33.234;-60.334;2023-06-10T15:50:51;12.60;59.70
55771;DHT22;41687;-33.234;-60.334;2023-06-10T15:53:18;12.70;60.20
55771;DHT22;41687;-33.234;-60.334;2023-06-10T15:55:45;12.70;57.90
55771;DHT22;41687;-33.234;-60.334;2023-06-10T15:58:13;12.70;56.00
55771;DHT22;41687;-33.234;-60.334;2023-06-10T16:00:40;12.70;56.60
55771;DHT22;41687;-33.234;-60.334;2023-06-10T16:03:08;12.80;54.40
55771;DHT22;41687;-33.234;-60.334;2023-06-10T16:05:35;12.70;53.40
55771;DHT22;41687;-33.234;-60.334;2023-06-10T16:08:03;12.80;57.10
55771;DHT22;41687;-33.234;-60.334;2023-06-10T16:10:30;12.80;56.10
55771;DHT22;41687;-33.234;-60.334;2023-06-10T16:12:58;12.80;54.50
55771;DHT22;41687;-33.234;-60.334;2023-06-10T16:15:27;12.70;54.50
55771;DHT22;41687;-33.234;-60.334;2023-06-10T16:17:55;12.80;54.20
55771;DHT22;41687;-33.234;-60.334;2023-06-10T16:20:25;12.80;52.30
55771;DHT22;41687;-33.234;-60.334;2023-06-10T16:22:52;12.80;52.10
55771;DHT22;41687;-33.234;-60.334;2023-06-10T16:25:20;12.80;52.00
55771;DHT22;41687;-33.234;-60.334;2023-06-10T16:27:47;12.90;53.90
55771;DHT22;41687;-33.234;-60.334;2023-06-10T16:30:15;12.90;53.80
55771;DHT22;41687;-33.234;-60.334;2023-06-10T16:32:42;12.90;54.20
55771;DHT22;41687;-33.234;-60.334;2023-06-10T16:35:10;12.90;51.60
55771;DHT22;41687;-33.234;-60.334;2023-06-10T16:37:38;12.90;50.90
55771;DHT22;41687;-33.234;-60.334;2023-06-10T16:40:06;12.90;50.70
55771;DHT22;41687;-33.234;-60.334;2023-06-10T16:42:33;12.90;51.60
55771;DHT22;41687;-33.234;-60.334;2023-06-10T16:45:01;12.90;50.00
55771;DHT22;41687;-33.234;-60.334;2023-06-10T16:47:29;13.00;50.00
55771;DHT22;41687;-33.234;-60.334;2023-06-10T16:49:57;12.90;48.80
55771;DHT22;41687;-33.234;-60.334;2023-06-10T16:52:24;12.80;48.50
55771;DHT22;41687;-33.234;-60.334;2023-06-10T16:54:52;12.80;48.90
55771;DHT22;41687;-33.234;-60.334;2023-06-10T16:57:19;12.80;49.60
55771;DHT22;41687;-33.234;-60.334;2023-06-10T16:59:47;12.90;49.70
55771;DHT22;41687;-33.234;-60.334;2023-06-10T17:02:14;12.80;48.90
55771;DHT22;41687;-33.234;-60.334;2023-06-10T17:04:42;12.80;49.70
55771;DHT22;41687;-33.234;-60.334;2023-06-10T17:07:09;12.90;50.50
55771;DHT22;41687;-33.234;-60.334;2023-06-10T17:09:37;12.90;50.00
55771;DHT22;41687;-33.234;-60.334;2023-06-10T17:12:04;12.90;51.10
55771;DHT22;41687;-33.234;-60.334;2023-06-10T17:14:33;12.90;50.20
55771;DHT22;41687;-33.234;-60.334;2023-06-10T17:17:01;13.00;51.30
55771;DHT22;41687;-33.234;-60.334;2023-06-10T17:19:28;13.00;50.60
55771;DHT22;41687;-33.234;-60.334;2023-06-10T17:21:56;13.00;49.50
55771;DHT22;41687;-33.234;-60.334;2023-06-10T17:24:24;13.10;47.80
55771;DHT22;41687;-33.234;-60.334;2023-06-10T17:26:53;13.20;46.50
55771;DHT22;41687;-33.234;-60.334;2023-06-10T17:29:21;13.20;46.70
55771;DHT22;41687;-33.234;-60.334;2023-06-10T17:31:49;13.20;44.20
55771;DHT22;41687;-33.234;-60.334;2023-06-10T17:34:18;13.20;44.80
55771;DHT22;41687;-33.234;-60.334;2023-06-10T17:36:45;13.30;43.40
55771;DHT22;41687;-33.234;-60.334;2023-06-10T17:39:12;13.30;44.70
55771;DHT22;41687;-33.234;-60.334;2023-06-10T17:41:40;13.40;45.30
55771;DHT22;41687;-33.234;-60.334;2023-06-10T17:44:08;13.50;45.40
55771;DHT22;41687;-33.234;-60.334;2023-06-10T17:46:35;13.50;45.40
55771;DHT22;41687;-33.234;-60.334;2023-06-10T17:49:03;13.60;45.10
55771;DHT22;41687;-33.234;-60.334;2023-06-10T17:51:30;13.60;45.00
55771;DHT22;41687;-33.234;-60.334;2023-06-10T17:53:58;13.50;43.00
55771;DHT22;41687;-33.234;-60.334;2023-06-10T17:56:25;13.50;42.80
55771;DHT22;41687;-33.234;-60.334;2023-06-10T17:58:53;13.50;43.60
55771;DHT22;41687;-33.234;-60.334;2023-06-10T18:01:20;13.60;43.60
55771;DHT22;41687;-33.234;-60.334;2023-06-10T18:03:48;13.70;44.90
55771;DHT22;41687;-33.234;-60.334;2023-06-10T18:06:16;13.80;45.50
55771;DHT22;41687;-33.234;-60.334;2023-06-10T18:08:43;13.90;44.90
55771;DHT22;41687;-33.234;-60.334;2023-06-10T18:11:11;13.90;45.40
55771;DHT22;41687;-33.234;-60.334;2023-06-10T18:13:39;13.90;46.40
55771;DHT22;41687;-33.234;-60.334;2023-06-10T18:16:07;13.90;45.10
55771;DHT22;41687;-33.234;-60.334;2023-06-10T18:18:35;13.90;44.10
55771;DHT22;41687;-33.234;-60.334;2023-06-10T18:21:02;13.90;45.00
55771;DHT22;41687;-33.234;-60.334;2023-06-10T18:23:30;13.90;45.00
55771;DHT22;41687;-33.234;-60.334;2023-06-10T18:25:57;13.90;43.30
55771;DHT22;41687;-33.234;-60.334;2023-06-10T18:28:25;14.00;43.60
55771;DHT22;41687;-33.234;-60.334;2023-06-10T18:30:57;14.00;44.20
55771;DHT22;41687;-33.234;-60.334;2023-06-10T18:33:25;14.00;43.90
55771;DHT22;41687;-33.234;-60.334;2023-06-10T18:35:53;14.00;45.00
55771;DHT22;41687;-33.234;-60.334;2023-06-10T18:38:21;14.00;45.50
55771;DHT22;41687;-33.234;-60.334;2023-06-10T18:40:48;14.00;45.60
55771;DHT22;41687;-33.234;-60.334;2023-06-10T18:43:16;14.00;45.10
55771;DHT22;41687;-33.234;-60.334;2023-06-10T18:45:44;14.00;45.30
55771;DHT22;41687;-33.234;-60.334;2023-06-10T18:48:11;14.00;45.30
55771;DHT22;41687;-33.234;-60.334;2023-06-10T18:50:39;14.00;45.80
55771;DHT22;41687;-33.234;-60.334;2023-06-10T18:53:06;14.00;45.70
55771;DHT22;41687;-33.234;-60.334;2023-06-10T18:55:34;14.00;46.50
55771;DHT22;41687;-33.234;-60.334;2023-06-10T18:58:03;14.10;47.30
55771;DHT22;41687;-33.234;-60.334;2023-06-10T19:00:31;14.10;47.40
55771;DHT22;41687;-33.234;-60.334;2023-06-10T19:02:58;14.10;47.00
55771;DHT22;41687;-33.234;-60.334;2023-06-10T19:05:26;14.00;45.70
55771;DHT22;41687;-33.234;-60.334;2023-06-10T19:07:54;14.10;46.60
55771;DHT22;41687;-33.234;-60.334;2023-06-10T19:10:21;14.10;46.80
55771;DHT22;41687;-33.234;-60.334;2023-06-10T19:12:49;14.00;47.70
55771;DHT22;41687;-33.234;-60.334;2023-06-10T19:15:17;14.00;47.10
55771;DHT22;41687;-33.234;-60.334;2023-06-10T19:17:44;14.00;49.80
55771;DHT22;41687;-33.234;-60.334;2023-06-10T19:20:12;14.00;50.00
55771;DHT22;41687;-33.234;-60.334;2023-06-10T19:22:40;14.00;49.40
55771;DHT22;41687;-33.234;-60.334;2023-06-10T19:25:08;14.00;49.70